Vannes, Francia

3:44 AM CET en Enero 17, 2017 (GMT +0100)
Impasse des Goélands | | Change Station

Alt 0 ft 47.63 °N, 2.94 °W | Updated 5 minutes ago

Nublado
Nublado
43.2 ° F
Sensación térmica 43 ° F
N
2.5
Viento Variable Viento desde Este
Gusts 7.5 mph

Hoy
Alta -- | Baja -- ° F
--% Posibilidad de precipitaciones
Ayer
Alta -- | Baja -- ° F
Precip. -- pul
Presión 30.39 pul
Visibilidad 3.1 Millas
Nubes Nublado 500 ft
Vientos helados 43 ° F
Punto de rocío 40 ° F
Humedad 90%
Precipitaciones 0.00 pul
Espesor de la nieve No disponible.
8:53 AM 5:50 PM
Gibosa menguante, 76% visible
METAR LFRV 170230Z AUTO 09005KT 5000 BR OVC005 04/03 Q1029
Presión 30.39 pul
Visibilidad 3.1 Millas
Nubes Nublado 500 ft
Vientos helados 43 ° F
Punto de rocío 40 ° F
Humedad 90%
Precipitaciones 0.00 pul
Espesor de la nieve No disponible.
8:53 AM 5:50 PM
Gibosa menguante, 76% visible
METAR LFRV 170230Z AUTO 09005KT 5000 BR OVC005 04/03 Q1029

Get Your Daily Forecast Email!

Thanks for signing up!

Be on the lookout for a verification email in your inbox.

You'll start receiving the daily forecast at 8 AM.

×

10-Day Weather Forecast

×

Almanac

Astronomía

Jan. 17, 2017 Salida Puesta
Hora real
Crepúsculo civil
Crepúsculo náutico
Crepúsculo astronómico
Luna
Horas de luz
Horas de luz
Tomorrow will be .
, % of the Moon is Illuminated

Extremos de hoy

Máximos del país Bajas del país

Community

WunderPhotos

Upload Photos

1,962,540 ¡fotos cargadas!

WunderBlog® & News

Nearby

Calidad del aire

  Calidad del aire Índice AQ Contaminante
Not available.

Grosos de nieve

Estación Profundido Altura

Actividad de terremotos

Ciudad Distance Mag. Tiempo y dato
Magnitud mínima muestra es 2,5.

Temperaturas de aguas costeras

Lugar Temperatura

Stations

Estaciones meteorológicas cercanas

Ubicación de la estación Temp. Vientos helados Punto de rocío Humedad Viento Precip. Alt Actualizado Tipo